sensor_id;sensor_type;location;lat;lon;timestamp;temperature;humidity
73141;SHT31;61339;50.558;4.696;2023-07-13T00:02:21;16.88;64.89
73141;SHT31;61339;50.558;4.696;2023-07-13T00:04:46;16.83;65.19
73141;SHT31;61339;50.558;4.696;2023-07-13T00:07:12;16.78;65.66
73141;SHT31;61339;50.558;4.696;2023-07-13T00:09:39;16.68;66.02
73141;SHT31;61339;50.558;4.696;2023-07-13T00:12:05;16.57;66.43
73141;SHT31;61339;50.558;4.696;2023-07-13T00:14:46;16.59;66.69
73141;SHT31;61339;50.558;4.696;2023-07-13T00:17:11;16.47;67.12
73141;SHT31;61339;50.558;4.696;2023-07-13T00:19:38;16.48;67.58
73141;SHT31;61339;50.558;4.696;2023-07-13T00:22:04;16.57;67.35
73141;SHT31;61339;50.558;4.696;2023-07-13T00:24:29;16.44;67.71
73141;SHT31;61339;50.558;4.696;2023-07-13T00:26:55;16.47;67.82
73141;SHT31;61339;50.558;4.696;2023-07-13T00:29:21;16.49;67.66
73141;SHT31;61339;50.558;4.696;2023-07-13T00:31:46;16.47;68.09
73141;SHT31;61339;50.558;4.696;2023-07-13T00:34:11;16.44;68.39
73141;SHT31;61339;50.558;4.696;2023-07-13T00:36:37;16.35;68.62
73141;SHT31;61339;50.558;4.696;2023-07-13T00:39:03;16.30;69.12
73141;SHT31;61339;50.558;4.696;2023-07-13T00:41:29;16.31;69.03
73141;SHT31;61339;50.558;4.696;2023-07-13T00:43:55;16.32;68.98
73141;SHT31;61339;50.558;4.696;2023-07-13T00:46:29;16.21;69.31
73141;SHT31;61339;50.558;4.696;2023-07-13T00:48:57;16.24;69.33
73141;SHT31;61339;50.558;4.696;2023-07-13T00:51:30;16.07;69.86
73141;SHT31;61339;50.558;4.696;2023-07-13T00:53:59;16.00;70.14
73141;SHT31;61339;50.558;4.696;2023-07-13T00:56:26;15.89;70.70
73141;SHT31;61339;50.558;4.696;2023-07-13T00:58:52;15.93;70.53
73141;SHT31;61339;50.558;4.696;2023-07-13T01:01:18;15.86;70.82
73141;SHT31;61339;50.558;4.696;2023-07-13T01:03:43;15.82;71.21
73141;SHT31;61339;50.558;4.696;2023-07-13T01:06:09;15.72;71.61
73141;SHT31;61339;50.558;4.696;2023-07-13T01:08:34;15.73;71.85
73141;SHT31;61339;50.558;4.696;2023-07-13T01:11:00;15.52;72.61
73141;SHT31;61339;50.558;4.696;2023-07-13T01:13:25;15.53;72.85
73141;SHT31;61339;50.558;4.696;2023-07-13T01:15:51;15.56;72.82
73141;SHT31;61339;50.558;4.696;2023-07-13T01:18:20;15.52;72.84
73141;SHT31;61339;50.558;4.696;2023-07-13T01:20:57;15.41;73.49
73141;SHT31;61339;50.558;4.696;2023-07-13T01:23:24;15.58;73.16
73141;SHT31;61339;50.558;4.696;2023-07-13T01:25:50;15.49;73.60
73141;SHT31;61339;50.558;4.696;2023-07-13T01:28:16;15.42;74.04
73141;SHT31;61339;50.558;4.696;2023-07-13T01:30:44;15.42;74.32
73141;SHT31;61339;50.558;4.696;2023-07-13T01:33:16;15.35;74.54
73141;SHT31;61339;50.558;4.696;2023-07-13T01:35:43;15.34;74.79
73141;SHT31;61339;50.558;4.696;2023-07-13T01:38:09;15.35;74.68
73141;SHT31;61339;50.558;4.696;2023-07-13T01:40:36;15.42;74.41
73141;SHT31;61339;50.558;4.696;2023-07-13T01:43:02;15.36;74.55
73141;SHT31;61339;50.558;4.696;2023-07-13T01:45:28;15.18;75.09
73141;SHT31;61339;50.558;4.696;2023-07-13T01:47:53;15.29;74.81
73141;SHT31;61339;50.558;4.696;2023-07-13T01:50:18;15.17;75.21
73141;SHT31;61339;50.558;4.696;2023-07-13T01:52:44;15.11;75.14
73141;SHT31;61339;50.558;4.696;2023-07-13T01:55:09;15.19;75.35
73141;SHT31;61339;50.558;4.696;2023-07-13T01:57:35;15.27;75.17
73141;SHT31;61339;50.558;4.696;2023-07-13T02:00:03;15.28;75.00
73141;SHT31;61339;50.558;4.696;2023-07-13T02:02:30;15.35;74.83
73141;SHT31;61339;50.558;4.696;2023-07-13T02:04:55;15.21;75.49
73141;SHT31;61339;50.558;4.696;2023-07-13T02:07:21;15.18;75.31
73141;SHT31;61339;50.558;4.696;2023-07-13T02:09:46;15.22;75.34
73141;SHT31;61339;50.558;4.696;2023-07-13T02:12:12;15.25;75.11
73141;SHT31;61339;50.558;4.696;2023-07-13T02:14:37;15.29;75.02
73141;SHT31;61339;50.558;4.696;2023-07-13T02:17:03;15.12;75.59
73141;SHT31;61339;50.558;4.696;2023-07-13T02:19:29;15.10;75.73
73141;SHT31;61339;50.558;4.696;2023-07-13T02:21:54;14.92;76.38
73141;SHT31;61339;50.558;4.696;2023-07-13T02:24:20;14.95;76.35
73141;SHT31;61339;50.558;4.696;2023-07-13T02:26:46;14.95;76.42
73141;SHT31;61339;50.558;4.696;2023-07-13T02:29:11;14.88;76.73
73141;SHT31;61339;50.558;4.696;2023-07-13T02:31:37;14.97;76.51
73141;SHT31;61339;50.558;4.696;2023-07-13T02:34:03;14.92;76.71
73141;SHT31;61339;50.558;4.696;2023-07-13T02:36:30;14.91;76.53
73141;SHT31;61339;50.558;4.696;2023-07-13T02:38:55;15.07;76.09
73141;SHT31;61339;50.558;4.696;2023-07-13T02:41:21;15.19;75.72
73141;SHT31;61339;50.558;4.696;2023-07-13T02:43:48;15.11;75.94
73141;SHT31;61339;50.558;4.696;2023-07-13T02:46:13;14.95;76.57
73141;SHT31;61339;50.558;4.696;2023-07-13T02:48:39;14.98;76.52
73141;SHT31;61339;50.558;4.696;2023-07-13T02:51:05;14.98;76.48
73141;SHT31;61339;50.558;4.696;2023-07-13T02:53:31;15.05;76.35
73141;SHT31;61339;50.558;4.696;2023-07-13T02:55:57;15.00;76.46
73141;SHT31;61339;50.558;4.696;2023-07-13T02:58:22;14.94;76.86
73141;SHT31;61339;50.558;4.696;2023-07-13T03:00:48;15.01;76.49
73141;SHT31;61339;50.558;4.696;2023-07-13T03:03:15;14.97;76.91
73141;SHT31;61339;50.558;4.696;2023-07-13T03:05:42;14.98;76.74
73141;SHT31;61339;50.558;4.696;2023-07-13T03:08:09;14.97;76.73
73141;SHT31;61339;50.558;4.696;2023-07-13T03:10:35;14.80;77.14
73141;SHT31;61339;50.558;4.696;2023-07-13T03:13:00;14.83;77.17
73141;SHT31;61339;50.558;4.696;2023-07-13T03:15:26;14.98;77.02
73141;SHT31;61339;50.558;4.696;2023-07-13T03:17:52;14.73;77.95
73141;SHT31;61339;50.558;4.696;2023-07-13T03:20:18;14.84;77.74
73141;SHT31;61339;50.558;4.696;2023-07-13T03:22:43;14.79;77.82
73141;SHT31;61339;50.558;4.696;2023-07-13T03:25:09;14.80;77.97
73141;SHT31;61339;50.558;4.696;2023-07-13T03:27:34;14.73;78.00
73141;SHT31;61339;50.558;4.696;2023-07-13T03:30:00;14.63;78.46
73141;SHT31;61339;50.558;4.696;2023-07-13T03:32:25;14.47;79.32
73141;SHT31;61339;50.558;4.696;2023-07-13T03:34:51;14.51;79.17
73141;SHT31;61339;50.558;4.696;2023-07-13T03:37:16;14.64;78.84
73141;SHT31;61339;50.558;4.696;2023-07-13T03:39:42;14.63;78.95
73141;SHT31;61339;50.558;4.696;2023-07-13T03:42:08;14.71;78.79
73141;SHT31;61339;50.558;4.696;2023-07-13T03:44:33;14.73;78.77
73141;SHT31;61339;50.558;4.696;2023-07-13T03:46:58;14.79;78.66
73141;SHT31;61339;50.558;4.696;2023-07-13T03:49:24;14.79;78.51
73141;SHT31;61339;50.558;4.696;2023-07-13T03:51:49;14.60;79.42
73141;SHT31;61339;50.558;4.696;2023-07-13T03:54:15;14.70;79.09
73141;SHT31;61339;50.558;4.696;2023-07-13T03:56:40;14.67;79.41
73141;SHT31;61339;50.558;4.696;2023-07-13T03:59:05;14.79;79.11
73141;SHT31;61339;50.558;4.696;2023-07-13T04:01:31;14.73;79.33
73141;SHT31;61339;50.558;4.696;2023-07-13T04:03:56;14.94;78.91
73141;SHT31;61339;50.558;4.696;2023-07-13T04:06:25;14.98;78.95
73141;SHT31;61339;50.558;4.696;2023-07-13T04:08:53;15.14;78.48
73141;SHT31;61339;50.558;4.696;2023-07-13T04:11:21;15.24;78.34
73141;SHT31;61339;50.558;4.696;2023-07-13T04:13:47;15.22;78.57
73141;SHT31;61339;50.558;4.696;2023-07-13T04:16:14;15.35;78.31
73141;SHT31;61339;50.558;4.696;2023-07-13T04:18:40;15.32;78.50
73141;SHT31;61339;50.558;4.696;2023-07-13T04:21:06;15.49;78.22
73141;SHT31;61339;50.558;4.696;2023-07-13T04:23:32;15.59;78.12
73141;SHT31;61339;50.558;4.696;2023-07-13T04:25:57;15.66;77.81
73141;SHT31;61339;50.558;4.696;2023-07-13T04:28:24;15.85;77.33
73141;SHT31;61339;50.558;4.696;2023-07-13T04:30:50;15.74;77.65
73141;SHT31;61339;50.558;4.696;2023-07-13T04:33:16;15.85;77.74
73141;SHT31;61339;50.558;4.696;2023-07-13T04:35:48;15.79;77.76
73141;SHT31;61339;50.558;4.696;2023-07-13T04:38:14;15.96;77.26
73141;SHT31;61339;50.558;4.696;2023-07-13T04:40:44;16.06;76.89
73141;SHT31;61339;50.558;4.696;2023-07-13T04:43:10;16.04;76.84
73141;SHT31;61339;50.558;4.696;2023-07-13T04:45:35;16.09;76.92
73141;SHT31;61339;50.558;4.696;2023-07-13T04:48:01;16.10;76.75
73141;SHT31;61339;50.558;4.696;2023-07-13T04:50:26;16.06;76.92
73141;SHT31;61339;50.558;4.696;2023-07-13T04:52:51;16.07;76.83
73141;SHT31;61339;50.558;4.696;2023-07-13T04:55:18;16.10;76.79
73141;SHT31;61339;50.558;4.696;2023-07-13T04:57:44;16.11;76.55
73141;SHT31;61339;50.558;4.696;2023-07-13T05:00:10;16.11;76.81
73141;SHT31;61339;50.558;4.696;2023-07-13T05:02:37;16.28;76.08
73141;SHT31;61339;50.558;4.696;2023-07-13T05:05:03;16.28;75.87
73141;SHT31;61339;50.558;4.696;2023-07-13T05:07:29;16.30;75.80
73141;SHT31;61339;50.558;4.696;2023-07-13T05:09:55;16.52;75.17
73141;SHT31;61339;50.558;4.696;2023-07-13T05:12:20;16.67;74.49
73141;SHT31;61339;50.558;4.696;2023-07-13T05:14:46;16.73;74.44
73141;SHT31;61339;50.558;4.696;2023-07-13T05:17:11;16.85;73.63
73141;SHT31;61339;50.558;4.696;2023-07-13T05:19:36;16.96;73.26
73141;SHT31;61339;50.558;4.696;2023-07-13T05:22:02;16.99;73.43
73141;SHT31;61339;50.558;4.696;2023-07-13T05:24:29;16.93;73.95
73141;SHT31;61339;50.558;4.696;2023-07-13T05:26:55;17.02;73.60
73141;SHT31;61339;50.558;4.696;2023-07-13T05:29:21;16.93;73.66
73141;SHT31;61339;50.558;4.696;2023-07-13T05:31:47;16.95;73.40
73141;SHT31;61339;50.558;4.696;2023-07-13T05:34:13;16.92;73.93
73141;SHT31;61339;50.558;4.696;2023-07-13T05:36:38;16.82;74.05
73141;SHT31;61339;50.558;4.696;2023-07-13T05:39:04;16.90;74.21
73141;SHT31;61339;50.558;4.696;2023-07-13T05:41:29;16.75;74.80
73141;SHT31;61339;50.558;4.696;2023-07-13T05:43:54;16.78;74.71
73141;SHT31;61339;50.558;4.696;2023-07-13T05:46:20;16.85;74.53
73141;SHT31;61339;50.558;4.696;2023-07-13T05:48:45;16.90;74.44
73141;SHT31;61339;50.558;4.696;2023-07-13T05:51:11;17.05;73.90
73141;SHT31;61339;50.558;4.696;2023-07-13T05:53:36;17.09;73.61
73141;SHT31;61339;50.558;4.696;2023-07-13T05:56:01;17.12;73.88
73141;SHT31;61339;50.558;4.696;2023-07-13T05:58:27;17.22;73.67
73141;SHT31;61339;50.558;4.696;2023-07-13T06:01:03;17.22;73.38
73141;SHT31;61339;50.558;4.696;2023-07-13T06:03:29;17.17;73.63
73141;SHT31;61339;50.558;4.696;2023-07-13T06:05:55;17.29;73.24
73141;SHT31;61339;50.558;4.696;2023-07-13T06:08:20;17.57;72.51
73141;SHT31;61339;50.558;4.696;2023-07-13T06:10:46;17.58;72.10
73141;SHT31;61339;50.558;4.696;2023-07-13T06:13:11;17.64;71.91
73141;SHT31;61339;50.558;4.696;2023-07-13T06:15:36;17.75;71.39
73141;SHT31;61339;50.558;4.696;2023-07-13T06:18:02;17.68;71.22
73141;SHT31;61339;50.558;4.696;2023-07-13T06:20:28;18.12;70.14
73141;SHT31;61339;50.558;4.696;2023-07-13T06:22:54;18.36;68.92
73141;SHT31;61339;50.558;4.696;2023-07-13T06:25:19;18.45;68.53
73141;SHT31;61339;50.558;4.696;2023-07-13T06:27:44;18.64;68.08
73141;SHT31;61339;50.558;4.696;2023-07-13T06:30:10;18.64;67.89
73141;SHT31;61339;50.558;4.696;2023-07-13T06:32:36;18.52;67.93
73141;SHT31;61339;50.558;4.696;2023-07-13T06:35:01;18.63;67.62
73141;SHT31;61339;50.558;4.696;2023-07-13T06:37:27;18.55;67.59
73141;SHT31;61339;50.558;4.696;2023-07-13T06:39:52;18.94;67.05
73141;SHT31;61339;50.558;4.696;2023-07-13T06:42:18;19.14;66.67
73141;SHT31;61339;50.558;4.696;2023-07-13T06:44:43;18.96;67.17
73141;SHT31;61339;50.558;4.696;2023-07-13T06:47:08;18.93;66.64
73141;SHT31;61339;50.558;4.696;2023-07-13T06:49:33;19.07;66.50
73141;SHT31;61339;50.558;4.696;2023-07-13T06:51:59;19.12;66.20
73141;SHT31;61339;50.558;4.696;2023-07-13T06:54:24;19.12;65.87
73141;SHT31;61339;50.558;4.696;2023-07-13T06:56:50;19.41;65.01
73141;SHT31;61339;50.558;4.696;2023-07-13T06:59:15;19.70;64.34
73141;SHT31;61339;50.558;4.696;2023-07-13T07:01:40;19.62;63.74
73141;SHT31;61339;50.558;4.696;2023-07-13T07:04:06;19.67;64.27
73141;SHT31;61339;50.558;4.696;2023-07-13T07:06:31;19.87;63.15
73141;SHT31;61339;50.558;4.696;2023-07-13T07:08:57;19.93;62.92
73141;SHT31;61339;50.558;4.696;2023-07-13T07:11:25;20.14;62.36
73141;SHT31;61339;50.558;4.696;2023-07-13T07:13:51;20.54;61.35
73141;SHT31;61339;50.558;4.696;2023-07-13T07:16:17;20.41;61.18
73141;SHT31;61339;50.558;4.696;2023-07-13T07:18:43;20.27;61.38
73141;SHT31;61339;50.558;4.696;2023-07-13T07:21:09;20.16;62.26
73141;SHT31;61339;50.558;4.696;2023-07-13T07:23:34;20.33;61.76
73141;SHT31;61339;50.558;4.696;2023-07-13T07:26:00;20.37;61.43
73141;SHT31;61339;50.558;4.696;2023-07-13T07:28:25;20.35;61.31
73141;SHT31;61339;50.558;4.696;2023-07-13T07:30:55;20.54;60.96
73141;SHT31;61339;50.558;4.696;2023-07-13T07:33:21;20.68;60.80
73141;SHT31;61339;50.558;4.696;2023-07-13T07:35:47;20.59;60.65
73141;SHT31;61339;50.558;4.696;2023-07-13T07:38:12;20.75;60.54
73141;SHT31;61339;50.558;4.696;2023-07-13T07:40:39;20.81;60.14
73141;SHT31;61339;50.558;4.696;2023-07-13T07:43:06;20.65;60.38
73141;SHT31;61339;50.558;4.696;2023-07-13T07:45:31;20.72;60.11
73141;SHT31;61339;50.558;4.696;2023-07-13T07:47:57;20.96;59.33
73141;SHT31;61339;50.558;4.696;2023-07-13T07:50:24;20.94;59.08
73141;SHT31;61339;50.558;4.696;2023-07-13T07:52:50;21.12;58.75
73141;SHT31;61339;50.558;4.696;2023-07-13T07:55:16;21.34;58.37
73141;SHT31;61339;50.558;4.696;2023-07-13T07:57:41;21.33;58.53
73141;SHT31;61339;50.558;4.696;2023-07-13T08:00:07;21.26;58.50
73141;SHT31;61339;50.558;4.696;2023-07-13T08:02:32;21.44;58.16
73141;SHT31;61339;50.558;4.696;2023-07-13T08:04:58;21.23;58.22
73141;SHT31;61339;50.558;4.696;2023-07-13T08:07:23;21.26;58.49
73141;SHT31;61339;50.558;4.696;2023-07-13T08:09:52;21.37;58.10
73141;SHT31;61339;50.558;4.696;2023-07-13T08:12:17;21.78;56.64
73141;SHT31;61339;50.558;4.696;2023-07-13T08:14:43;22.15;55.16
73141;SHT31;61339;50.558;4.696;2023-07-13T08:17:08;22.76;53.92
73141;SHT31;61339;50.558;4.696;2023-07-13T08:19:34;23.10;53.28
73141;SHT31;61339;50.558;4.696;2023-07-13T08:21:59;23.04;52.73
73141;SHT31;61339;50.558;4.696;2023-07-13T08:24:24;22.18;54.22
73141;SHT31;61339;50.558;4.696;2023-07-13T08:26:51;21.98;55.45
73141;SHT31;61339;50.558;4.696;2023-07-13T08:29:17;21.93;55.89
73141;SHT31;61339;50.558;4.696;2023-07-13T08:31:43;21.77;56.00
73141;SHT31;61339;50.558;4.696;2023-07-13T08:34:08;21.80;56.12
73141;SHT31;61339;50.558;4.696;2023-07-13T08:36:34;21.34;57.69
73141;SHT31;61339;50.558;4.696;2023-07-13T08:38:59;21.06;58.59
73141;SHT31;61339;50.558;4.696;2023-07-13T08:41:24;21.12;58.81
73141;SHT31;61339;50.558;4.696;2023-07-13T08:43:54;20.96;57.70
73141;SHT31;61339;50.558;4.696;2023-07-13T08:48:56;21.37;57.71
73141;SHT31;61339;50.558;4.696;2023-07-13T08:51:45;21.85;56.07
73141;SHT31;61339;50.558;4.696;2023-07-13T08:54:35;21.44;56.77
73141;SHT31;61339;50.558;4.696;2023-07-13T08:57:10;21.77;56.20
73141;SHT31;61339;50.558;4.696;2023-07-13T08:59:37;22.55;54.35
73141;SHT31;61339;50.558;4.696;2023-07-13T09:08:01;24.12;50.84
73141;SHT31;61339;50.558;4.696;2023-07-13T09:10:30;24.46;49.07
73141;SHT31;61339;50.558;4.696;2023-07-13T09:15:35;25.23;47.39
73141;SHT31;61339;50.558;4.696;2023-07-13T09:18:22;24.71;47.87
73141;SHT31;61339;50.558;4.696;2023-07-13T09:20:59;24.91;48.04
73141;SHT31;61339;50.558;4.696;2023-07-13T09:23:27;25.33;47.00
73141;SHT31;61339;50.558;4.696;2023-07-13T09:26:05;25.29;46.94
73141;SHT31;61339;50.558;4.696;2023-07-13T09:28:54;24.91;47.56
73141;SHT31;61339;50.558;4.696;2023-07-13T09:31:33;25.01;47.63
73141;SHT31;61339;50.558;4.696;2023-07-13T09:34:00;24.17;48.99
73141;SHT31;61339;50.558;4.696;2023-07-13T09:36:32;24.13;49.33
73141;SHT31;61339;50.558;4.696;2023-07-13T09:41:53;24.36;49.36
73141;SHT31;61339;50.558;4.696;2023-07-13T09:44:28;24.34;49.20
73141;SHT31;61339;50.558;4.696;2023-07-13T09:46:57;24.16;49.21
73141;SHT31;61339;50.558;4.696;2023-07-13T09:49:42;24.72;47.69
73141;SHT31;61339;50.558;4.696;2023-07-13T09:52:14;24.17;49.15
73141;SHT31;61339;50.558;4.696;2023-07-13T09:54:45;24.31;49.01
73141;SHT31;61339;50.558;4.696;2023-07-13T09:57:16;24.68;47.88
73141;SHT31;61339;50.558;4.696;2023-07-13T09:59:44;24.40;48.89
73141;SHT31;61339;50.558;4.696;2023-07-13T10:02:32;24.23;48.74
73141;SHT31;61339;50.558;4.696;2023-07-13T10:05:05;24.36;48.93
73141;SHT31;61339;50.558;4.696;2023-07-13T10:07:35;24.87;47.08
73141;SHT31;61339;50.558;4.696;2023-07-13T10:10:02;25.18;45.86
73141;SHT31;61339;50.558;4.696;2023-07-13T10:12:30;24.84;47.18
73141;SHT31;61339;50.558;4.696;2023-07-13T10:14:58;24.24;46.83
73141;SHT31;61339;50.558;4.696;2023-07-13T10:17:33;24.26;47.52
73141;SHT31;61339;50.558;4.696;2023-07-13T10:20:02;23.79;48.79
73141;SHT31;61339;50.558;4.696;2023-07-13T10:22:53;23.63;48.15
73141;SHT31;61339;50.558;4.696;2023-07-13T10:25:21;23.40;48.67
73141;SHT31;61339;50.558;4.696;2023-07-13T10:27:50;23.41;49.13
73141;SHT31;61339;50.558;4.696;2023-07-13T10:30:24;23.69;49.00
73141;SHT31;61339;50.558;4.696;2023-07-13T10:33:00;23.83;48.32
73141;SHT31;61339;50.558;4.696;2023-07-13T10:35:27;23.92;48.48
73141;SHT31;61339;50.558;4.696;2023-07-13T10:37:58;24.14;48.64
73141;SHT31;61339;50.558;4.696;2023-07-13T10:40:37;26.01;44.72
73141;SHT31;61339;50.558;4.696;2023-07-13T10:43:09;26.18;44.31
73141;SHT31;61339;50.558;4.696;2023-07-13T10:45:38;26.80;41.98
73141;SHT31;61339;50.558;4.696;2023-07-13T10:48:05;26.45;42.50
73141;SHT31;61339;50.558;4.696;2023-07-13T10:50:42;26.09;42.87
73141;SHT31;61339;50.558;4.696;2023-07-13T10:53:29;25.74;43.25
73141;SHT31;61339;50.558;4.696;2023-07-13T10:56:08;24.80;45.39
73141;SHT31;61339;50.558;4.696;2023-07-13T10:58:43;25.46;43.51
73141;SHT31;61339;50.558;4.696;2023-07-13T11:01:14;25.79;42.64
73141;SHT31;61339;50.558;4.696;2023-07-13T11:06:39;29.82;35.23
73141;SHT31;61339;50.558;4.696;2023-07-13T11:11:47;32.24;31.37
73141;SHT31;61339;50.558;4.696;2023-07-13T11:14:44;33.58;
73141;SHT31;61339;50.558;4.696;2023-07-13T11:17:48;34.63;28.18
73141;SHT31;61339;50.558;4.696;2023-07-13T11:22:49;34.02;28.53
73141;SHT31;61339;50.558;4.696;2023-07-13T11:30:33;34.05;28.52
73141;SHT31;61339;50.558;4.696;2023-07-13T11:35:44;33.24;29.17
73141;SHT31;61339;50.558;4.696;2023-07-13T11:38:15;34.23;28.11
73141;SHT31;61339;50.558;4.696;2023-07-13T11:40:44;33.68;28.34
73141;SHT31;61339;50.558;4.696;2023-07-13T11:43:13;30.72;32.56
73141;SHT31;61339;50.558;4.696;2023-07-13T11:45:39;28.87;36.01
73141;SHT31;61339;50.558;4.696;2023-07-13T11:48:04;32.79;30.25
73141;SHT31;61339;50.558;4.696;2023-07-13T11:50:30;33.81;29.02
73141;SHT31;61339;50.558;4.696;2023-07-13T11:52:58;33.44;28.97
73141;SHT31;61339;50.558;4.696;2023-07-13T11:55:24;30.96;32.89
73141;SHT31;61339;50.558;4.696;2023-07-13T11:58:00;32.96;29.50
73141;SHT31;61339;50.558;4.696;2023-07-13T12:00:29;33.84;27.80
73141;SHT31;61339;50.558;4.696;2023-07-13T12:02:57;34.88;26.26
73141;SHT31;61339;50.558;4.696;2023-07-13T12:05:24;31.64;30.16
73141;SHT31;61339;50.558;4.696;2023-07-13T12:07:50;32.09;30.36
73141;SHT31;61339;50.558;4.696;2023-07-13T12:10:27;35.12;25.58
73141;SHT31;61339;50.558;4.696;2023-07-13T12:13:09;34.35;26.03
73141;SHT31;61339;50.558;4.696;2023-07-13T12:15:42;34.04;26.56
73141;SHT31;61339;50.558;4.696;2023-07-13T12:18:20;32.02;30.18
73141;SHT31;61339;50.558;4.696;2023-07-13T12:20:48;30.74;31.78
73141;SHT31;61339;50.558;4.696;2023-07-13T12:23:24;31.39;30.40
73141;SHT31;61339;50.558;4.696;2023-07-13T12:25:53;34.59;26.54
73141;SHT31;61339;50.558;4.696;2023-07-13T12:28:34;32.31;28.83
73141;SHT31;61339;50.558;4.696;2023-07-13T12:31:05;29.83;32.74
73141;SHT31;61339;50.558;4.696;2023-07-13T12:33:33;31.30;30.92
73141;SHT31;61339;50.558;4.696;2023-07-13T12:36:03;30.03;32.87
73141;SHT31;61339;50.558;4.696;2023-07-13T12:38:31;30.06;33.33
73141;SHT31;61339;50.558;4.696;2023-07-13T12:40:56;30.92;31.17
73141;SHT31;61339;50.558;4.696;2023-07-13T12:43:23;32.22;29.22
73141;SHT31;61339;50.558;4.696;2023-07-13T12:46:01;29.72;33.05
73141;SHT31;61339;50.558;4.696;2023-07-13T12:48:26;28.67;35.16
73141;SHT31;61339;50.558;4.696;2023-07-13T12:50:55;29.73;33.37
73141;SHT31;61339;50.558;4.696;2023-07-13T12:53:28;30.49;32.03
73141;SHT31;61339;50.558;4.696;2023-07-13T12:55:59;29.11;33.47
73141;SHT31;61339;50.558;4.696;2023-07-13T12:58:40;28.13;35.44
73141;SHT31;61339;50.558;4.696;2023-07-13T13:01:10;27.44;36.52
73141;SHT31;61339;50.558;4.696;2023-07-13T13:03:39;26.86;37.16
73141;SHT31;61339;50.558;4.696;2023-07-13T13:08:40;27.51;37.54
73141;SHT31;61339;50.558;4.696;2023-07-13T13:11:08;27.30;37.42
73141;SHT31;61339;50.558;4.696;2023-07-13T13:13:34;27.29;36.71
73141;SHT31;61339;50.558;4.696;2023-07-13T13:16:14;27.37;36.40
73141;SHT31;61339;50.558;4.696;2023-07-13T13:18:42;27.36;36.94
73141;SHT31;61339;50.558;4.696;2023-07-13T13:21:09;26.47;38.39
73141;SHT31;61339;50.558;4.696;2023-07-13T13:23:34;26.42;39.50
73141;SHT31;61339;50.558;4.696;2023-07-13T13:26:00;25.97;39.92
73141;SHT31;61339;50.558;4.696;2023-07-13T13:28:26;26.55;38.81
73141;SHT31;61339;50.558;4.696;2023-07-13T13:30:51;27.47;37.74
73141;SHT31;61339;50.558;4.696;2023-07-13T13:33:18;27.22;38.21
73141;SHT31;61339;50.558;4.696;2023-07-13T13:35:44;27.18;37.91
73141;SHT31;61339;50.558;4.696;2023-07-13T13:38:15;26.71;38.50
73141;SHT31;61339;50.558;4.696;2023-07-13T13:40:42;26.24;38.76
73141;SHT31;61339;50.558;4.696;2023-07-13T13:43:16;26.35;39.21
73141;SHT31;61339;50.558;4.696;2023-07-13T13:45:42;26.42;39.40
73141;SHT31;61339;50.558;4.696;2023-07-13T13:48:17;26.68;39.05
73141;SHT31;61339;50.558;4.696;2023-07-13T13:50:43;26.97;37.34
73141;SHT31;61339;50.558;4.696;2023-07-13T13:53:12;27.44;37.25
73141;SHT31;61339;50.558;4.696;2023-07-13T13:55:41;27.71;35.03
73141;SHT31;61339;50.558;4.696;2023-07-13T13:58:08;27.65;34.96
73141;SHT31;61339;50.558;4.696;2023-07-13T14:00:34;27.71;34.84
73141;SHT31;61339;50.558;4.696;2023-07-13T14:03:00;27.31;35.48
73141;SHT31;61339;50.558;4.696;2023-07-13T14:05:26;27.43;35.92
73141;SHT31;61339;50.558;4.696;2023-07-13T14:07:52;27.92;35.95
73141;SHT31;61339;50.558;4.696;2023-07-13T14:10:19;27.77;35.99
73141;SHT31;61339;50.558;4.696;2023-07-13T14:12:47;27.27;36.64
73141;SHT31;61339;50.558;4.696;2023-07-13T14:15:21;26.78;38.32
73141;SHT31;61339;50.558;4.696;2023-07-13T14:17:46;27.20;37.48
73141;SHT31;61339;50.558;4.696;2023-07-13T14:20:16;27.55;36.87
73141;SHT31;61339;50.558;4.696;2023-07-13T14:22:42;27.45;37.41
73141;SHT31;61339;50.558;4.696;2023-07-13T14:25:14;26.99;37.78
73141;SHT31;61339;50.558;4.696;2023-07-13T14:27:41;26.85;37.79
73141;SHT31;61339;50.558;4.696;2023-07-13T14:30:18;26.62;38.90
73141;SHT31;61339;50.558;4.696;2023-07-13T14:32:44;26.62;37.62
73141;SHT31;61339;50.558;4.696;2023-07-13T14:35:14;26.69;38.69
73141;SHT31;61339;50.558;4.696;2023-07-13T14:37:41;26.79;38.13
73141;SHT31;61339;50.558;4.696;2023-07-13T14:40:19;26.86;37.81
73141;SHT31;61339;50.558;4.696;2023-07-13T14:42:46;26.72;37.97
73141;SHT31;61339;50.558;4.696;2023-07-13T14:45:17;26.68;39.25
73141;SHT31;61339;50.558;4.696;2023-07-13T14:47:44;26.73;38.04
73141;SHT31;61339;50.558;4.696;2023-07-13T14:50:17;26.29;38.71
73141;SHT31;61339;50.558;4.696;2023-07-13T14:52:44;26.39;38.82
73141;SHT31;61339;50.558;4.696;2023-07-13T14:55:15;26.41;39.33
73141;SHT31;61339;50.558;4.696;2023-07-13T14:57:41;26.20;39.87
73141;SHT31;61339;50.558;4.696;2023-07-13T15:00:20;26.32;40.56
73141;SHT31;61339;50.558;4.696;2023-07-13T15:02:48;26.39;39.54
73141;SHT31;61339;50.558;4.696;2023-07-13T15:05:20;26.05;39.25
73141;SHT31;61339;50.558;4.696;2023-07-13T15:07:48;26.00;40.49
73141;SHT31;61339;50.558;4.696;2023-07-13T15:10:19;26.31;40.91
73141;SHT31;61339;50.558;4.696;2023-07-13T15:12:45;26.16;40.06
73141;SHT31;61339;50.558;4.696;2023-07-13T15:15:11;25.97;40.84
73141;SHT31;61339;50.558;4.696;2023-07-13T15:20:15;26.04;40.38
73141;SHT31;61339;50.558;4.696;2023-07-13T15:22:42;25.93;40.24
73141;SHT31;61339;50.558;4.696;2023-07-13T15:25:19;25.88;40.95
73141;SHT31;61339;50.558;4.696;2023-07-13T15:27:45;25.32;41.49
73141;SHT31;61339;50.558;4.696;2023-07-13T15:30:12;25.07;42.10
73141;SHT31;61339;50.558;4.696;2023-07-13T15:32:38;25.46;41.55
73141;SHT31;61339;50.558;4.696;2023-07-13T15:35:05;25.25;40.12
73141;SHT31;61339;50.558;4.696;2023-07-13T15:37:30;25.53;40.52
73141;SHT31;61339;50.558;4.696;2023-07-13T15:39:56;25.28;39.53
73141;SHT31;61339;50.558;4.696;2023-07-13T15:42:23;24.82;39.98
73141;SHT31;61339;50.558;4.696;2023-07-13T15:44:49;24.92;39.00
73141;SHT31;61339;50.558;4.696;2023-07-13T15:47:15;24.84;38.27
73141;SHT31;61339;50.558;4.696;2023-07-13T15:49:41;24.88;38.79
73141;SHT31;61339;50.558;4.696;2023-07-13T15:52:22;24.63;38.50
73141;SHT31;61339;50.558;4.696;2023-07-13T15:54:48;24.87;38.19
73141;SHT31;61339;50.558;4.696;2023-07-13T15:57:14;24.85;37.77
73141;SHT31;61339;50.558;4.696;2023-07-13T15:59:41;24.64;38.09
73141;SHT31;61339;50.558;4.696;2023-07-13T16:02:18;24.75;38.67
73141;SHT31;61339;50.558;4.696;2023-07-13T16:04:44;24.70;39.11
73141;SHT31;61339;50.558;4.696;2023-07-13T16:07:10;24.68;39.40
73141;SHT31;61339;50.558;4.696;2023-07-13T16:09:36;24.91;38.89
73141;SHT31;61339;50.558;4.696;2023-07-13T16:12:11;25.33;38.89